Time;durP1;ratioP1;P1;durP2;ratioP2;P2;SDS_P1;SDS_P2;PMS_P1;PMS_P2;Temp;Humidity;BMP_temperature;BMP_pressure;BME280_temperature;BME280_humidity;BME280_pressure;Samples;Min_cycle;Max_cycle;Signal;HPM_P1;HPM_P2
2021/09/01 07:48:40;;;;;;;7.95;4.50;;;20.10;78.20;;;;;;5073492;27;45546;-60
2021/09/01 07:51:06;;;;;;;8.32;4.15;;;20.50;78.70;;;;;;5066250;27;46080;-60
2021/09/01 07:53:31;;;;;;;5.75;4.55;;;20.60;77.00;;;;;;5069283;28;45735;-64
2021/09/01 07:55:57;;;;;;;31.40;11.23;;;20.90;76.50;;;;;;5076303;27;46134;-69
2021/09/01 07:58:23;;;;;;;10.40;4.75;;;21.10;75.60;;;;;;5068448;28;45435;-63
2021/09/01 08:00:48;;;;;;;17.80;6.97;;;20.90;75.10;;;;;;5070773;27;47548;-65
2021/09/01 08:03:14;;;;;;;14.07;6.13;;;20.80;75.60;;;;;;5070796;28;45770;-62
2021/09/01 08:05:39;;;;;;;13.30;5.35;;;20.80;75.50;;;;;;5076350;27;45574;-63
2021/09/01 08:08:05;;;;;;;6.72;5.05;;;20.80;75.90;;;;;;5067640;27;51521;-63
2021/09/01 08:10:31;;;;;;;10.85;4.53;;;20.80;75.50;;;;;;5062018;28;45818;-64
2021/09/01 08:12:56;;;;;;;6.72;5.05;;;20.80;75.70;;;;;;5065205;28;46881;-64
2021/09/01 08:15:22;;;;;;;7.50;4.60;;;20.90;75.60;;;;;;5066206;27;45468;-63
2021/09/01 08:17:47;;;;;;;6.40;4.45;;;20.90;75.80;;;;;;5069442;27;51891;-65
2021/09/01 08:20:13;;;;;;;6.72;4.22;;;20.90;75.70;;;;;;5069770;28;45619;-68
2021/09/01 08:22:39;;;;;;;9.07;4.30;;;21.00;75.70;;;;;;5075968;27;45819;-63
2021/09/01 08:25:05;;;;;;;7.03;4.35;;;21.00;75.80;;;;;;5070149;28;45552;-63
2021/09/01 08:27:30;;;;;;;5.63;4.10;;;21.00;76.00;;;;;;5069076;28;46295;-63
2021/09/01 08:29:56;;;;;;;4.95;4.20;;;21.10;76.10;;;;;;5069704;27;45960;-63
2021/09/01 08:32:22;;;;;;;7.22;4.57;;;21.10;76.20;;;;;;5069348;28;45780;-63
2021/09/01 08:34:47;;;;;;;10.77;5.07;;;21.10;76.30;;;;;;5070407;28;45793;-66
2021/09/01 08:37:13;;;;;;;5.72;4.35;;;21.20;76.40;;;;;;5069544;27;47057;-65
2021/09/01 08:39:39;;;;;;;7.53;4.47;;;21.20;76.40;;;;;;5070141;27;45667;-65
2021/09/01 08:42:04;;;;;;;5.00;3.90;;;21.20;76.40;;;;;;5035270;28;45422;-63
2021/09/01 08:44:30;;;;;;;6.05;4.38;;;21.30;76.40;;;;;;5070256;27;45358;-63
2021/09/01 08:46:57;;;;;;;4.65;3.97;;;21.20;76.40;;;;;;5069228;28;46534;-63
2021/09/01 08:49:24;;;;;;;5.10;4.18;;;21.30;76.40;;;;;;5069316;28;45594;-63
2021/09/01 08:51:49;;;;;;;6.57;4.88;;;21.30;76.50;;;;;;5068156;28;45598;-64
2021/09/01 08:54:15;;;;;;;5.65;4.10;;;21.30;76.50;;;;;;5069168;27;45528;-63
2021/09/01 08:56:41;;;;;;;4.60;4.00;;;21.40;76.50;;;;;;5074755;27;45500;-65
2021/09/01 08:59:06;;;;;;;5.05;3.95;;;21.40;76.50;;;;;;5058732;28;45477;-64
2021/09/01 09:01:41;;;;;;;5.93;3.78;;;21.40;76.40;;;;;;5056030;28;45463;-63
2021/09/01 09:04:38;;;;;;;5.57;3.95;;;21.50;76.60;;;;;;5055351;28;45800;-63
2021/09/01 09:07:06;;;;;;;4.68;4.28;;;21.50;76.50;;;;;;5043772;28;45436;-64
2021/09/01 09:09:36;;;;;;;4.90;4.00;;;21.50;76.60;;;;;;5053152;28;45600;-64
2021/09/01 09:12:03;;;;;;;5.07;3.65;;;21.50;76.50;;;;;;5052790;28;46148;-63
2021/09/01 09:14:46;;;;;;;4.40;3.88;;;21.60;76.50;;;;;;5054426;28;45906;-63
2021/09/01 09:17:19;;;;;;;5.15;3.67;;;21.60;76.50;;;;;;5060032;28;46454;-70
2021/09/01 09:19:48;;;;;;;5.20;3.75;;;21.50;76.10;;;;;;5052592;28;46958;-63
2021/09/01 09:22:27;;;;;;;6.18;4.30;;;21.50;75.90;;;;;;5052207;28;45762;-71
2021/09/01 09:25:18;;;;;;;4.70;4.30;;;21.50;75.80;;;;;;5046573;28;45499;-73
2021/09/01 09:27:53;;;;;;;5.00;4.50;;;21.50;75.80;;;;;;5048251;28;46071;-63
2021/09/01 09:30:19;;;;;;;7.13;4.47;;;21.50;75.80;;;;;;5053798;28;45432;-63
2021/09/01 09:32:57;;;;;;;5.07;4.18;;;21.50;75.60;;;;;;5048762;27;45475;-61
2021/09/01 09:35:24;;;;;;;5.93;5.30;;;21.50;75.70;;;;;;5054822;28;45863;-66
2021/09/01 09:38:05;;;;;;;5.85;5.18;;;21.50;76.10;;;;;;5034764;28;46191;-68
2021/09/01 09:40:32;;;;;;;6.43;4.70;;;21.60;76.10;;;;;;5028355;28;45528;-68
2021/09/01 09:42:57;;;;;;;5.90;4.70;;;21.70;76.50;;;;;;5046212;28;45579;-60
2021/09/01 09:45:25;;;;;;;8.13;4.78;;;21.60;75.90;;;;;;5052412;28;45829;-62
2021/09/01 09:47:52;;;;;;;5.53;4.75;;;21.60;76.00;;;;;;5054184;28;45831;-62
2021/09/01 09:50:18;;;;;;;7.55;4.75;;;21.60;76.20;;;;;;5049598;28;45409;-61
2021/09/01 09:52:43;;;;;;;6.82;4.80;;;21.60;76.20;;;;;;5053859;28;45353;-61
2021/09/01 09:55:13;;;;;;;6.95;4.68;;;21.60;76.20;;;;;;5051988;28;45368;-61
2021/09/01 09:57:49;;;;;;;16.73;8.80;;;21.60;76.10;;;;;;5050296;28;46801;-60
2021/09/01 10:00:18;;;;;;;18.48;9.32;;;21.60;76.40;;;;;;5054964;28;45503;-62
2021/09/01 10:02:45;;;;;;;14.32;7.32;;;21.60;76.80;;;;;;5053986;28;45471;-61
2021/09/01 10:05:15;;;;;;;12.85;6.68;;;21.60;77.20;;;;;;5055544;28;45709;-60
2021/09/01 10:07:40;;;;;;;13.43;6.28;;;21.60;77.00;;;;;;5054962;28;45758;-60
2021/09/01 10:10:08;;;;;;;11.80;5.88;;;21.60;76.90;;;;;;5036276;28;45428;-63
2021/09/01 10:12:37;;;;;;;9.68;5.80;;;21.50;76.70;;;;;;5041956;28;45706;-62
2021/09/01 10:15:04;;;;;;;9.50;6.18;;;21.50;76.90;;;;;;5049824;28;45577;-66
2021/09/01 10:17:29;;;;;;;9.90;4.90;;;21.50;76.80;;;;;;5055629;28;45476;-62
2021/09/01 10:19:55;;;;;;;8.65;5.20;;;21.50;76.90;;;;;;5048909;28;45486;-61
2021/09/01 10:22:20;;;;;;;7.97;4.68;;;21.50;76.90;;;;;;5051745;28;45498;-62
2021/09/01 10:24:48;;;;;;;5.10;4.50;;;21.50;76.90;;;;;;5050616;28;45580;-66
2021/09/01 10:27:16;;;;;;;6.82;4.78;;;21.50;77.20;;;;;;5050783;28;46092;-60
2021/09/01 10:29:55;;;;;;;5.88;4.63;;;21.50;77.30;;;;;;5053617;28;45482;-61
2021/09/01 10:32:29;;;;;;;5.75;4.30;;;21.50;77.40;;;;;;5047585;28;45748;-61
2021/09/01 10:35:13;;;;;;;7.93;5.05;;;21.50;77.20;;;;;;5050816;28;45759;-61
2021/09/01 10:37:45;;;;;;;5.88;4.20;;;21.60;77.00;;;;;;5052371;28;46298;-61
2021/09/01 10:40:21;;;;;;;4.75;4.28;;;21.60;77.00;;;;;;5054622;28;45461;-64
2021/09/01 10:42:50;;;;;;;5.90;4.20;;;21.60;76.80;;;;;;5054583;28;45998;-62
2021/09/01 10:45:17;;;;;;;5.28;4.78;;;21.60;76.90;;;;;;5054300;28;45821;-61
2021/09/01 10:47:58;;;;;;;4.65;4.00;;;21.60;76.90;;;;;;5053222;28;45503;-61
2021/09/01 10:50:30;;;;;;;5.38;3.95;;;21.60;76.90;;;;;;5051746;28;45856;-61
2021/09/01 10:52:59;;;;;;;4.93;4.07;;;21.60;76.70;;;;;;5052059;28;45663;-61
2021/09/01 10:55:25;;;;;;;4.40;4.00;;;21.70;76.60;;;;;;5058840;28;46032;-63
2021/09/01 10:58:24;;;;;;;4.65;3.58;;;21.70;76.90;;;;;;5050596;28;46532;-64
2021/09/01 11:00:57;;;;;;;4.80;4.40;;;21.60;76.80;;;;;;5065598;28;45593;-63
2021/09/01 11:03:33;;;;;;;4.20;3.80;;;21.60;76.80;;;;;;5063335;27;45429;-64
2021/09/01 11:06:13;;;;;;;4.63;3.83;;;21.60;76.80;;;;;;5039340;28;45788;-65
2021/09/01 11:08:57;;;;;;;4.22;3.72;;;21.60;76.80;;;;;;5051957;28;46253;-64
2021/09/01 11:11:35;;;;;;;4.35;3.95;;;21.60;77.00;;;;;;5050133;28;45494;-63
2021/09/01 11:14:00;;;;;;;4.78;3.25;;;21.60;76.80;;;;;;5052516;28;45392;-65
2021/09/01 11:16:26;;;;;;;4.47;3.88;;;21.70;76.80;;;;;;5059316;28;45538;-65
2021/09/01 11:19:11;;;;;;;4.05;3.65;;;21.70;76.90;;;;;;5056981;27;45913;-64
2021/09/01 11:21:44;;;;;;;3.90;3.53;;;21.70;76.80;;;;;;5051211;28;45507;-65
2021/09/01 11:24:10;;;;;;;3.45;3.15;;;21.70;77.00;;;;;;5053331;28;45479;-64
2021/09/01 11:26:36;;;;;;;3.80;3.30;;;21.70;77.00;;;;;;5053917;28;45551;-65
2021/09/01 11:29:04;;;;;;;3.78;3.38;;;21.70;77.00;;;;;;5054534;28;46504;-67
2021/09/01 11:31:30;;;;;;;3.78;3.47;;;21.70;76.90;;;;;;5054323;28;45701;-64
2021/09/01 11:33:57;;;;;;;4.15;3.67;;;21.60;76.90;;;;;;5054462;28;45415;-65
2021/09/01 11:36:27;;;;;;;3.85;3.55;;;21.70;77.00;;;;;;5053214;28;45506;-64
2021/09/01 11:38:52;;;;;;;3.50;3.08;;;21.60;76.90;;;;;;5054971;28;47135;-64
2021/09/01 11:41:22;;;;;;;3.90;3.50;;;21.60;76.90;;;;;;5052861;28;45382;-64
2021/09/01 11:43:53;;;;;;;4.13;3.55;;;21.70;76.90;;;;;;5053256;28;45555;-65
2021/09/01 11:46:19;;;;;;;4.47;4.07;;;21.60;76.90;;;;;;5054065;28;45357;-64
2021/09/01 11:48:45;;;;;;;4.22;3.90;;;21.70;76.90;;;;;;5053969;28;45410;-64
2021/09/01 11:51:10;;;;;;;4.82;3.35;;;21.60;76.80;;;;;;5053569;28;49706;-64
2021/09/01 11:53:40;;;;;;;3.42;3.13;;;21.70;76.80;;;;;;5054515;28;45392;-64
2021/09/01 11:56:08;;;;;;;3.95;3.50;;;21.70;76.80;;;;;;5054408;28;45519;-63
2021/09/01 11:58:34;;;;;;;3.72;3.42;;;21.70;76.70;;;;;;5052968;28;46226;-64
2021/09/01 12:01:03;;;;;;;3.95;3.55;;;21.70;76.70;;;;;;5053707;28;45403;-64
2021/09/01 12:03:28;;;;;;;4.00;3.60;;;21.70;76.60;;;;;;5019696;28;45405;-64
2021/09/01 12:06:07;;;;;;;3.83;3.53;;;21.70;76.70;;;;;;5052976;28;45527;-64
2021/09/01 12:08:49;;;;;;;3.90;3.58;;;21.70;76.50;;;;;;5054019;28;45438;-65
2021/09/01 12:11:15;;;;;;;4.45;4.00;;;21.70;76.50;;;;;;5053553;28;45820;-65
2021/09/01 12:13:44;;;;;;;3.35;3.13;;;21.70;76.50;;;;;;5053839;28;45492;-64
2021/09/01 12:16:10;;;;;;;4.43;4.03;;;21.70;76.50;;;;;;5057720;28;45439;-64
2021/09/01 12:18:55;;;;;;;3.90;3.50;;;21.70;76.40;;;;;;5055940;28;46066;-67
2021/09/01 12:21:23;;;;;;;4.53;4.13;;;21.80;76.40;;;;;;5073450;27;45419;-64
2021/09/01 12:24:08;;;;;;;4.43;3.95;;;21.80;76.40;;;;;;5072908;28;45526;-64
2021/09/01 12:26:53;;;;;;;4.32;3.92;;;21.80;76.40;;;;;;5074230;28;45451;-65
2021/09/01 12:29:27;;;;;;;3.95;3.65;;;21.80;76.40;;;;;;5072352;28;46296;-64
2021/09/01 12:31:52;;;;;;;3.67;3.38;;;21.80;76.30;;;;;;5061824;27;45839;-64
2021/09/01 12:34:29;;;;;;;4.20;3.80;;;21.80;76.30;;;;;;5054911;28;46060;-67
2021/09/01 12:37:03;;;;;;;3.50;3.20;;;21.80;76.20;;;;;;5057218;28;45800;-64
2021/09/01 12:39:42;;;;;;;4.22;3.83;;;21.80;76.20;;;;;;5056561;28;46814;-66
2021/09/01 12:42:18;;;;;;;4.90;4.40;;;21.90;76.20;;;;;;5056980;28;45795;-65
2021/09/01 12:44:52;;;;;;;4.70;3.70;;;21.90;76.20;;;;;;5056836;28;45451;-64
2021/09/01 12:47:17;;;;;;;4.18;3.70;;;21.90;76.20;;;;;;5055236;28;45810;-64
2021/09/01 12:49:47;;;;;;;4.53;4.05;;;21.90;76.10;;;;;;5055323;28;45861;-64
2021/09/01 12:52:14;;;;;;;5.50;4.20;;;21.90;76.10;;;;;;5056517;28;45791;-65
2021/09/01 12:54:40;;;;;;;4.65;4.25;;;22.00;76.10;;;;;;5054000;28;45590;-68
2021/09/01 12:57:05;;;;;;;4.15;3.80;;;21.90;76.10;;;;;;5044229;28;45504;-65
2021/09/01 12:59:34;;;;;;;5.45;4.18;;;21.90;76.10;;;;;;5047322;28;45923;-64
2021/09/01 13:02:00;;;;;;;5.68;4.18;;;22.00;76.40;;;;;;5053200;28;45435;-78
2021/09/01 13:04:28;;;;;;;6.38;4.43;;;22.30;77.00;;;;;;5046396;28;45475;-68
2021/09/01 14:19:54;;;;;;;4.00;3.55;;;30.30;57.30;;;;;;5086268;27;45688;-63
2021/09/01 14:22:20;;;;;;;5.03;4.50;;;28.40;65.00;;;;;;5077515;27;46204;-63
2021/09/01 14:24:45;;;;;;;4.05;3.75;;;27.00;67.80;;;;;;5076140;27;46538;-65
2021/09/01 14:27:11;;;;;;;4.25;3.88;;;26.40;70.10;;;;;;5073005;27;45495;-62
2021/09/01 14:29:42;;;;;;;4.80;3.80;;;26.10;69.60;;;;;;5069951;27;46175;-72
2021/09/01 14:32:08;;;;;;;4.60;3.75;;;26.10;71.60;;;;;;5072139;27;45361;-66
2021/09/01 14:34:33;;;;;;;4.57;3.90;;;26.10;70.00;;;;;;5081364;27;45846;-73
2021/09/01 14:36:59;;;;;;;3.88;3.47;;;26.10;68.10;;;;;;5082230;27;45572;-59
2021/09/01 14:39:24;;;;;;;4.45;4.05;;;26.20;67.90;;;;;;5061773;27;50428;-60
2021/09/01 14:41:50;;;;;;;3.72;3.42;;;26.20;67.10;;;;;;5058363;28;49419;-59
2021/09/01 14:44:15;;;;;;;4.32;3.88;;;26.30;67.20;;;;;;5060814;27;47147;-59
2021/09/01 14:46:41;;;;;;;6.55;4.00;;;26.20;66.30;;;;;;5067998;27;46941;-60
2021/09/01 14:49:07;;;;;;;4.00;3.70;;;26.20;66.10;;;;;;5070960;27;45675;-60
2021/09/01 14:51:32;;;;;;;5.05;3.63;;;26.20;66.00;;;;;;5080298;27;45711;-60
2021/09/01 14:53:58;;;;;;;4.38;3.72;;;26.20;66.60;;;;;;5070876;27;45444;-62
2021/09/01 14:56:23;;;;;;;4.15;3.70;;;26.20;67.20;;;;;;5071375;28;45973;-66
2021/09/01 14:58:49;;;;;;;6.13;4.22;;;26.20;66.50;;;;;;5069390;28;46471;-61
2021/09/01 15:01:15;;;;;;;3.92;3.53;;;26.20;66.10;;;;;;5069853;27;45479;-60
2021/09/01 15:03:42;;;;;;;7.32;4.18;;;26.20;65.90;;;;;;5075295;27;45467;-61
2021/09/01 15:06:08;;;;;;;14.05;5.40;;;26.20;65.80;;;;;;5070740;28;45446;-61
2021/09/01 15:08:33;;;;;;;6.78;4.40;;;26.30;65.70;;;;;;5059305;27;45472;-61
2021/09/01 15:10:59;;;;;;;5.47;4.28;;;26.30;65.80;;;;;;5053360;28;46042;-68
2021/09/01 15:13:25;;;;;;;7.15;4.05;;;26.30;67.90;;;;;;5070363;28;45399;-64
2021/09/01 15:15:50;;;;;;;5.70;3.78;;;26.40;66.50;;;;;;5071081;27;45576;-62
2021/09/01 15:18:19;;;;;;;7.10;4.32;;;26.40;66.00;;;;;;5060507;27;46928;-61
2021/09/01 15:20:46;;;;;;;5.82;3.83;;;26.50;66.10;;;;;;5065085;28;45510;-72
2021/09/01 15:23:12;;;;;;;5.30;3.72;;;26.70;65.90;;;;;;5074022;27;45797;-70
2021/09/01 15:25:38;;;;;;;6.22;3.78;;;26.80;66.10;;;;;;5087608;27;45930;-65
2021/09/01 15:28:03;;;;;;;4.65;3.90;;;27.00;65.30;;;;;;5076193;27;45582;-73
2021/09/01 15:30:29;;;;;;;5.45;3.42;;;27.20;64.70;;;;;;5062885;27;45499;-70
2021/09/01 15:32:54;;;;;;;4.22;3.80;;;27.20;64.00;;;;;;5071249;27;45509;-71
2021/09/01 15:35:20;;;;;;;6.18;3.83;;;27.30;63.80;;;;;;5064979;27;45585;-69
2021/09/01 15:37:46;;;;;;;5.30;4.20;;;27.20;63.60;;;;;;5056138;28;46177;-66
2021/09/01 15:40:11;;;;;;;5.97;3.80;;;27.20;63.50;;;;;;5057486;27;45510;-67
2021/09/01 15:42:55;;;;;;;4.45;3.65;;;27.10;63.60;;;;;;5056358;28;45764;-71
2021/09/01 15:45:21;;;;;;;3.85;3.42;;;27.00;63.60;;;;;;5052803;28;45439;-66
2021/09/01 15:47:54;;;;;;;5.57;3.30;;;26.90;63.70;;;;;;5075871;27;45482;-65
2021/09/01 15:50:21;;;;;;;4.45;3.90;;;26.80;63.60;;;;;;5036047;28;45378;-71
2021/09/01 15:52:47;;;;;;;3.90;3.35;;;26.80;63.80;;;;;;5037744;28;45681;-71
2021/09/01 15:55:14;;;;;;;5.60;3.47;;;26.70;63.80;;;;;;5061856;28;45767;-70
2021/09/01 15:57:39;;;;;;;7.22;3.58;;;26.60;63.80;;;;;;5074288;27;46952;-67
2021/09/01 16:00:06;;;;;;;4.88;3.97;;;26.60;63.90;;;;;;5055288;28;45509;-71
2021/09/01 16:02:33;;;;;;;4.28;3.70;;;26.50;63.90;;;;;;5059889;28;45528;-70
2021/09/01 16:05:00;;;;;;;4.43;3.30;;;26.50;63.90;;;;;;5075130;28;45502;-71
2021/09/01 16:07:26;;;;;;;3.88;3.58;;;26.50;64.00;;;;;;5072721;28;46213;-63
2021/09/01 16:09:51;;;;;;;4.65;3.67;;;26.50;64.20;;;;;;5055026;28;56340;-63
2021/09/01 16:12:19;;;;;;;4.75;3.55;;;26.40;64.20;;;;;;5055346;28;45971;-71
2021/09/01 16:14:53;;;;;;;3.88;3.58;;;26.40;64.40;;;;;;5040063;28;45806;-68
2021/09/01 16:17:37;;;;;;;4.07;3.67;;;26.40;64.40;;;;;;5046969;28;46292;-69
2021/09/01 16:20:04;;;;;;;4.10;3.35;;;26.40;64.60;;;;;;5056278;28;45859;-71
2021/09/01 16:23:03;;;;;;;5.82;3.55;;;26.40;64.60;;;;;;5057463;27;45844;-71
2021/09/01 16:25:29;;;;;;;3.50;3.10;;;26.40;64.50;;;;;;5032762;28;45720;-68
2021/09/01 16:27:56;;;;;;;4.60;4.05;;;26.30;64.50;;;;;;5038666;28;45431;-66
2021/09/01 16:30:27;;;;;;;4.35;3.50;;;26.30;64.40;;;;;;5060039;28;45779;-71
2021/09/01 16:32:54;;;;;;;4.63;3.97;;;26.30;64.40;;;;;;5066997;28;46000;-71
2021/09/01 16:35:19;;;;;;;4.00;3.60;;;26.30;64.50;;;;;;5062805;28;45990;-71
2021/09/01 16:40:25;;;;;;;3.80;3.40;;;26.30;64.40;;;;;;5068083;28;45505;-71
2021/09/01 16:42:51;;;;;;;3.53;3.20;;;26.30;64.90;;;;;;5051803;28;45413;-72
2021/09/01 16:45:17;;;;;;;4.68;2.97;;;26.20;64.20;;;;;;5052177;28;45843;-71
2021/09/01 16:47:44;;;;;;;3.45;3.10;;;26.20;64.20;;;;;;5052637;28;46066;-70
2021/09/01 16:50:10;;;;;;;4.22;3.55;;;26.20;64.20;;;;;;5044277;28;45749;-72
2021/09/01 16:52:37;;;;;;;3.97;3.60;;;26.20;64.20;;;;;;5038022;28;45528;-72
2021/09/01 16:55:05;;;;;;;4.93;3.15;;;26.20;64.10;;;;;;5063747;28;45428;-72
2021/09/01 16:57:47;;;;;;;3.85;3.45;;;26.20;64.10;;;;;;5064868;28;46136;-70
2021/09/01 17:00:13;;;;;;;3.45;3.15;;;26.20;64.00;;;;;;5059262;28;45738;-72
2021/09/01 17:02:45;;;;;;;5.00;3.28;;;26.20;64.20;;;;;;5053616;28;45474;-64
2021/09/01 17:05:13;;;;;;;3.90;3.22;;;26.20;64.10;;;;;;5053889;28;45626;-72
2021/09/01 17:07:39;;;;;;;3.13;2.65;;;26.20;64.20;;;;;;5063192;28;45865;-65
2021/09/01 17:10:05;;;;;;;3.20;2.95;;;26.20;64.30;;;;;;5059892;27;45369;-69
2021/09/01 17:12:31;;;;;;;3.65;3.03;;;26.20;64.10;;;;;;5057811;27;45491;-63
2021/09/01 17:14:59;;;;;;;5.15;4.13;;;26.20;64.00;;;;;;5046416;28;45796;-62
2021/09/01 17:17:25;;;;;;;12.45;8.38;;;26.20;64.00;;;;;;5068476;28;45502;-62
2021/09/01 17:19:50;;;;;;;14.65;9.50;;;26.20;64.10;;;;;;5071042;28;45444;-63
2021/09/01 17:22:16;;;;;;;13.85;7.90;;;26.10;64.20;;;;;;5052779;28;45440;-63
2021/09/01 17:24:42;;;;;;;8.60;6.38;;;26.20;64.40;;;;;;5053138;28;45604;-63
2021/09/01 17:27:09;;;;;;;9.45;6.13;;;26.10;64.40;;;;;;5053520;28;45514;-64
2021/09/01 17:29:44;;;;;;;6.95;5.65;;;26.10;64.40;;;;;;5053458;28;45451;-65
2021/09/01 17:32:11;;;;;;;6.80;5.53;;;26.10;64.40;;;;;;5052874;28;45496;-64
2021/09/01 17:34:37;;;;;;;9.48;5.53;;;26.10;64.50;;;;;;5053891;28;45485;-63
2021/09/01 17:37:03;;;;;;;9.07;5.40;;;26.10;64.50;;;;;;5058814;28;45483;-62
2021/09/01 17:39:28;;;;;;;8.05;5.18;;;26.10;64.60;;;;;;5061213;28;45548;-62
2021/09/01 17:41:56;;;;;;;8.82;5.35;;;26.10;64.70;;;;;;5054571;27;45487;-62
2021/09/01 17:44:22;;;;;;;7.10;4.90;;;26.10;64.80;;;;;;5065057;28;45392;-62
2021/09/01 17:46:47;;;;;;;5.97;5.28;;;26.10;64.80;;;;;;5061352;28;51989;-62
2021/09/01 17:49:13;;;;;;;7.97;5.40;;;26.00;64.70;;;;;;5052084;28;46494;-62
2021/09/01 17:51:39;;;;;;;8.30;5.30;;;26.00;64.80;;;;;;5054227;28;45780;-62
2021/09/01 17:54:04;;;;;;;5.93;5.20;;;26.00;64.80;;;;;;5059034;28;45930;-65
2021/09/01 17:56:30;;;;;;;7.15;5.47;;;26.00;64.80;;;;;;5061280;28;45639;-64
2021/09/01 17:58:56;;;;;;;9.00;5.18;;;26.00;64.80;;;;;;5051371;28;45896;-64
2021/09/01 18:01:22;;;;;;;5.97;4.75;;;26.00;64.80;;;;;;5060523;27;45556;-62
2021/09/01 18:03:49;;;;;;;7.28;5.30;;;26.00;64.90;;;;;;5060545;28;45500;-62
2021/09/01 18:06:15;;;;;;;7.18;5.28;;;26.00;64.90;;;;;;5053619;28;46165;-63
2021/09/01 18:08:40;;;;;;;5.63;4.90;;;26.00;64.90;;;;;;5056549;28;45791;-62
2021/09/01 18:11:06;;;;;;;6.18;4.93;;;26.00;64.90;;;;;;5061781;27;47676;-61
2021/09/01 18:13:32;;;;;;;5.07;4.57;;;26.00;64.90;;;;;;5060747;27;45448;-62
2021/09/01 18:15:58;;;;;;;5.47;4.97;;;26.00;64.90;;;;;;5057036;28;46032;-62
2021/09/01 18:18:23;;;;;;;6.30;4.95;;;26.00;65.00;;;;;;5067775;28;45439;-62
2021/09/01 18:20:50;;;;;;;6.18;4.93;;;26.00;65.00;;;;;;5073456;27;45755;-63
2021/09/01 18:23:15;;;;;;;6.63;5.93;;;26.00;65.00;;;;;;5068233;27;45526;-62
2021/09/01 18:25:41;;;;;;;7.45;4.35;;;26.00;65.00;;;;;;5068853;28;45994;-66
2021/09/01 18:28:07;;;;;;;7.13;4.70;;;25.90;65.00;;;;;;5069960;28;45904;-61
2021/09/01 18:30:32;;;;;;;5.63;4.50;;;26.00;65.10;;;;;;5057646;28;45600;-62
2021/09/01 18:32:58;;;;;;;7.00;4.43;;;26.00;65.10;;;;;;5053422;28;45887;-61
2021/09/01 18:35:23;;;;;;;6.65;4.45;;;25.90;65.00;;;;;;5063363;28;45471;-61
2021/09/01 18:37:49;;;;;;;6.50;4.55;;;26.00;65.00;;;;;;5054108;27;45492;-62
2021/09/01 18:40:15;;;;;;;4.65;3.80;;;26.00;65.00;;;;;;5063504;28;45724;-61
2021/09/01 18:42:48;;;;;;;5.55;4.50;;;26.00;65.00;;;;;;5074351;27;45390;-62
2021/09/01 18:45:14;;;;;;;4.38;3.97;;;26.00;65.00;;;;;;5073251;28;45873;-61
2021/09/01 18:47:39;;;;;;;4.95;4.13;;;26.00;65.00;;;;;;5073716;27;45425;-62
2021/09/01 18:54:11;;;;;;;5.40;4.30;;;26.00;65.00;;;;;;5033659;28;45353;-61
2021/09/01 18:56:37;;;;;;;4.88;4.38;;;26.00;65.00;;;;;;5066230;28;45982;-61
2021/09/01 18:59:02;;;;;;;6.40;4.13;;;25.90;65.00;;;;;;5073514;27;45434;-61
2021/09/01 19:01:35;;;;;;;4.40;4.00;;;25.90;65.00;;;;;;5065164;27;45570;-61
2021/09/01 19:04:01;;;;;;;;;;;26.00;65.00;;;;;;5055409;28;45518;-61
2021/09/01 19:06:32;;;;;;;5.53;4.13;;;26.00;65.20;;;;;;5063554;28;45898;-62
2021/09/01 19:09:02;;;;;;;3.92;3.60;;;26.00;65.00;;;;;;5060888;28;45507;-62
2021/09/01 19:11:28;;;;;;;7.00;4.43;;;25.90;64.90;;;;;;5057914;28;45421;-62
2021/09/01 19:13:57;;;;;;;5.35;3.63;;;25.90;64.90;;;;;;5066524;28;45490;-62
2021/09/01 19:16:26;;;;;;;5.47;3.58;;;26.00;65.00;;;;;;5075200;28;45972;-62
2021/09/01 19:18:53;;;;;;;4.45;3.38;;;25.90;64.90;;;;;;5076516;27;45652;-62
2021/09/01 19:21:23;;;;;;;5.15;3.85;;;25.90;64.90;;;;;;5076691;27;45544;-62
2021/09/01 19:23:52;;;;;;;5.50;3.83;;;26.00;65.00;;;;;;5077185;27;45838;-62
2021/09/01 19:26:18;;;;;;;4.70;3.63;;;26.00;64.90;;;;;;5060309;27;45425;-62
2021/09/01 19:28:45;;;;;;;4.85;3.85;;;25.90;64.90;;;;;;5056632;28;45507;-62
2021/09/01 19:31:10;;;;;;;4.13;3.25;;;25.90;64.80;;;;;;5060265;28;45523;-62
2021/09/01 19:33:36;;;;;;;4.07;3.78;;;25.90;64.80;;;;;;5076362;28;45523;-62
2021/09/01 19:36:02;;;;;;;4.05;3.65;;;26.00;64.90;;;;;;5075161;28;46036;-62
2021/09/01 19:38:28;;;;;;;3.72;3.40;;;25.90;64.80;;;;;;5076186;27;45470;-62
2021/09/01 19:40:53;;;;;;;4.00;3.03;;;25.90;64.80;;;;;;5076328;27;45365;-63
2021/09/01 19:43:19;;;;;;;3.50;3.20;;;25.90;64.70;;;;;;5058307;27;45580;-63
2021/09/01 19:45:46;;;;;;;4.53;3.20;;;26.00;64.80;;;;;;5058303;28;46019;-62
2021/09/01 19:48:13;;;;;;;5.40;3.70;;;26.00;64.80;;;;;;5055408;28;45730;-62
2021/09/01 19:50:38;;;;;;;4.85;3.45;;;25.90;64.70;;;;;;5055571;28;45539;-62
2021/09/01 19:53:11;;;;;;;3.65;3.35;;;25.90;64.70;;;;;;5055191;28;45482;-63
2021/09/01 19:55:37;;;;;;;4.05;3.58;;;26.00;64.70;;;;;;5055060;28;46856;-61
2021/09/01 19:58:03;;;;;;;4.55;3.78;;;25.90;64.70;;;;;;5054654;28;45483;-62
2021/09/01 20:00:29;;;;;;;5.38;3.92;;;25.90;64.60;;;;;;5055082;28;45437;-63
2021/09/01 20:02:54;;;;;;;6.10;3.30;;;25.90;64.70;;;;;;5054978;28;45423;-63
2021/09/01 20:05:20;;;;;;;3.58;3.28;;;25.90;64.70;;;;;;5055541;28;46180;-61
2021/09/01 20:07:49;;;;;;;4.18;3.13;;;25.90;64.60;;;;;;5058224;28;45480;-62
2021/09/01 20:10:14;;;;;;;3.33;3.03;;;25.90;64.60;;;;;;5069199;28;45547;-62
2021/09/01 20:12:42;;;;;;;4.03;3.28;;;25.90;64.60;;;;;;5062874;28;45748;-63
2021/09/01 20:15:08;;;;;;;3.53;3.17;;;25.90;64.60;;;;;;5075612;27;45720;-62
2021/09/01 20:17:35;;;;;;;3.72;3.42;;;25.90;64.70;;;;;;5073332;27;45430;-62
2021/09/01 20:20:00;;;;;;;4.43;3.63;;;25.90;64.60;;;;;;5074955;28;45925;-62
2021/09/01 20:22:26;;;;;;;3.60;3.25;;;25.90;64.60;;;;;;5075772;28;45808;-62
2021/09/01 20:24:52;;;;;;;3.75;3.45;;;25.90;64.60;;;;;;5074360;28;45880;-62
2021/09/01 20:27:18;;;;;;;3.22;2.92;;;25.90;64.70;;;;;;5074144;28;45737;-62
2021/09/01 20:29:44;;;;;;;3.63;3.33;;;25.90;64.60;;;;;;5074809;28;45832;-62
2021/09/01 20:32:10;;;;;;;3.67;3.28;;;25.90;64.60;;;;;;5075548;27;45463;-62
2021/09/01 20:34:35;;;;;;;3.65;3.35;;;25.90;64.70;;;;;;5075682;27;46209;-62
2021/09/01 20:37:01;;;;;;;3.72;3.30;;;25.90;64.70;;;;;;5075859;27;45424;-62
2021/09/01 20:39:27;;;;;;;4.00;3.45;;;25.90;64.60;;;;;;5075133;27;45371;-62
2021/09/01 20:41:57;;;;;;;3.42;3.13;;;25.90;64.70;;;;;;5074138;28;45451;-63
2021/09/01 20:44:28;;;;;;;3.50;3.22;;;25.90;64.70;;;;;;5073564;28;46495;-62
2021/09/01 20:46:58;;;;;;;4.32;3.60;;;25.90;64.70;;;;;;5075179;28;45479;-62
2021/09/01 20:49:32;;;;;;;3.92;3.47;;;25.90;64.70;;;;;;5074988;27;45846;-62
2021/09/01 20:52:08;;;;;;;3.08;2.88;;;25.80;64.60;;;;;;5075095;28;45468;-62
2021/09/01 20:54:35;;;;;;;3.42;3.03;;;25.90;64.70;;;;;;5072556;28;46401;-62
2021/09/01 20:57:05;;;;;;;2.95;2.75;;;25.90;64.70;;;;;;5054762;28;45452;-61
2021/09/01 20:59:31;;;;;;;3.85;3.10;;;25.90;64.70;;;;;;5055345;28;45553;-63
2021/09/01 21:02:00;;;;;;;3.30;3.00;;;25.90;64.70;;;;;;5062407;28;46058;-61
2021/09/01 21:04:30;;;;;;;4.20;3.63;;;25.80;64.60;;;;;;5072848;28;46018;-62
2021/09/01 21:06:56;;;;;;;3.65;3.30;;;25.80;64.60;;;;;;5074931;27;45503;-62
2021/09/01 21:09:23;;;;;;;3.38;3.03;;;25.80;64.60;;;;;;5072965;27;45860;-62
2021/09/01 21:11:48;;;;;;;3.33;3.03;;;25.80;64.60;;;;;;5061222;28;45715;-62
2021/09/01 21:14:14;;;;;;;4.47;3.10;;;25.80;64.60;;;;;;5070910;28;46076;-62
2021/09/01 21:16:40;;;;;;;3.25;2.90;;;25.70;64.50;;;;;;5074734;27;45518;-61
2021/09/01 21:19:14;;;;;;;3.65;3.35;;;25.80;64.50;;;;;;5061844;28;45645;-62
2021/09/01 21:21:55;;;;;;;3.50;3.20;;;25.80;64.50;;;;;;5073816;28;45512;-61
2021/09/01 21:24:22;;;;;;;3.13;2.92;;;25.80;64.50;;;;;;5032166;28;45528;-62
2021/09/01 21:26:48;;;;;;;2.85;2.65;;;25.70;64.40;;;;;;5034521;28;45467;-61
2021/09/01 21:29:19;;;;;;;3.00;2.78;;;25.80;64.60;;;;;;5031998;28;45510;-62
2021/09/01 21:31:48;;;;;;;3.28;3.03;;;25.70;64.50;;;;;;5034221;28;45452;-62
2021/09/01 21:34:14;;;;;;;2.75;2.55;;;25.70;64.50;;;;;;5032702;28;45885;-62
2021/09/01 21:36:39;;;;;;;3.83;3.10;;;25.70;64.50;;;;;;5034092;28;53185;-61
2021/09/01 21:39:05;;;;;;;3.50;3.20;;;25.70;64.50;;;;;;5034039;28;45502;-62
2021/09/01 21:41:31;;;;;;;3.30;3.00;;;25.70;64.50;;;;;;5071318;27;45485;-60
2021/09/01 21:43:57;;;;;;;3.40;3.10;;;25.70;64.40;;;;;;5074762;28;45858;-61
2021/09/01 21:46:23;;;;;;;3.20;2.90;;;25.70;64.40;;;;;;5073183;28;45466;-61
2021/09/01 21:48:48;;;;;;;3.30;3.00;;;25.70;64.40;;;;;;5057108;28;45572;-61
2021/09/01 21:51:14;;;;;;;3.45;3.10;;;25.70;64.40;;;;;;5053855;28;45468;-61
2021/09/01 21:53:39;;;;;;;4.45;3.10;;;25.70;64.40;;;;;;5054108;28;45958;-61
2021/09/01 21:56:05;;;;;;;3.53;3.13;;;25.70;64.30;;;;;;5054278;28;45499;-62
2021/09/01 21:58:31;;;;;;;3.60;2.97;;;25.60;64.20;;;;;;5053191;28;45610;-61